NKS879 KPNS-KMCO
Flight info
| Callsign | NKS879 |
|---|---|
| Flight time | N/A |
| Altitude | 37000 |
| Route | CEW DEFUN GRNCH5 |
| Aircraft | A20N/M-SDE2E3FGHIRWXY/LB1 |
Departure
| Time | 2026-04-21 23:34 |
|---|---|
| Airport | Pensacola International Airport (KPNS) |
Arrival
| Time | N/A |
|---|---|
| Airport | Orlando International Airport (KMCO) |
| Time | Latitude | Longitude | Altitude | Speed | Heading |
|---|---|---|---|---|---|
| 2026-04-21 23:15 | 30.47478 | -87.19197 | 114 ft | 0 kts | 352° |
| 2026-04-21 23:26 | 30.47475 | -87.19197 | 114 ft | 2 kts | 352° |
| 2026-04-21 23:27 | 30.47460 | -87.19194 | 110 ft | 2 kts | 352° |
| 2026-04-21 23:27 | 30.47445 | -87.19192 | 112 ft | 2 kts | 352° |
| 2026-04-21 23:27 | 30.47428 | -87.19189 | 110 ft | 3 kts | 1° |
| 2026-04-21 23:27 | 30.47409 | -87.19195 | 109 ft | 3 kts | 46° |
| 2026-04-21 23:28 | 30.47403 | -87.19207 | 110 ft | 0 kts | 77° |
| 2026-04-21 23:30 | 30.47403 | -87.19206 | 110 ft | 1 kts | 77° |
| 2026-04-21 23:30 | 30.47408 | -87.19181 | 109 ft | 5 kts | 77° |
| 2026-04-21 23:30 | 30.47427 | -87.19119 | 112 ft | 11 kts | 61° |
| 2026-04-21 23:30 | 30.47438 | -87.19024 | 110 ft | 12 kts | 57° |
| 2026-04-21 23:31 | 30.47512 | -87.19018 | 110 ft | 11 kts | 347° |
| 2026-04-21 23:31 | 30.47593 | -87.19039 | 114 ft | 13 kts | 348° |
| 2026-04-21 23:31 | 30.47684 | -87.19063 | 116 ft | 14 kts | 347° |
| 2026-04-21 23:31 | 30.47776 | -87.19089 | 121 ft | 14 kts | 347° |
| 2026-04-21 23:32 | 30.47883 | -87.19118 | 125 ft | 18 kts | 346° |
| 2026-04-21 23:32 | 30.48015 | -87.19153 | 127 ft | 20 kts | 347° |
| 2026-04-21 23:32 | 30.48153 | -87.19191 | 132 ft | 21 kts | 347° |
| 2026-04-21 23:32 | 30.48250 | -87.19190 | 133 ft | 9 kts | 60° |
| 2026-04-21 23:33 | 30.48274 | -87.19106 | 132 ft | 13 kts | 76° |
| 2026-04-21 23:33 | 30.48265 | -87.19061 | 131 ft | 3 kts | 169° |
| 2026-04-21 23:33 | 30.48229 | -87.19049 | 127 ft | 8 kts | 166° |
| 2026-04-21 23:33 | 30.48042 | -87.18999 | 127 ft | 63 kts | 167° |
| 2026-04-21 23:34 | 30.47361 | -87.18819 | 112 ft | 133 kts | 167° |
| 2026-04-21 23:34 | 30.46338 | -87.18547 | 518 ft | 151 kts | 168° |
| 2026-04-21 23:34 | 30.45333 | -87.18260 | 1307 ft | 149 kts | 167° |
| 2026-04-21 23:34 | 30.44336 | -87.17959 | 2103 ft | 148 kts | 165° |
| 2026-04-21 23:35 | 30.43331 | -87.17571 | 2787 ft | 159 kts | 151° |
| 2026-04-21 23:35 | 30.47478 | -87.19197 | 115 ft | 0 kts | 352° |